sensor_id;sensor_type;location;lat;lon;timestamp;P1;durP1;ratioP1;P2;durP2;ratioP2
20084;SDS011;10202;48.474;9.138;2023-06-14T00:01:05;5.95;;;3.58;;
20084;SDS011;10202;48.474;9.138;2023-06-14T00:03:37;6.35;;;3.42;;
20084;SDS011;10202;48.474;9.138;2023-06-14T00:06:04;5.20;;;3.58;;
20084;SDS011;10202;48.474;9.138;2023-06-14T00:08:30;5.53;;;3.55;;
20084;SDS011;10202;48.474;9.138;2023-06-14T00:10:58;7.40;;;3.50;;
20084;SDS011;10202;48.474;9.138;2023-06-14T00:13:23;6.70;;;3.75;;
20084;SDS011;10202;48.474;9.138;2023-06-14T00:15:52;9.02;;;3.70;;
20084;SDS011;10202;48.474;9.138;2023-06-14T00:18:20;6.03;;;3.63;;
20084;SDS011;10202;48.474;9.138;2023-06-14T00:20:49;8.02;;;3.90;;
20084;SDS011;10202;48.474;9.138;2023-06-14T00:23:17;5.10;;;3.45;;
20084;SDS011;10202;48.474;9.138;2023-06-14T00:25:43;4.82;;;3.47;;
20084;SDS011;10202;48.474;9.138;2023-06-14T00:28:09;5.03;;;3.60;;
20084;SDS011;10202;48.474;9.138;2023-06-14T00:30:34;6.07;;;3.70;;
20084;SDS011;10202;48.474;9.138;2023-06-14T00:33:01;7.82;;;3.88;;
20084;SDS011;10202;48.474;9.138;2023-06-14T00:35:29;4.30;;;3.20;;
20084;SDS011;10202;48.474;9.138;2023-06-14T00:37:56;6.93;;;3.78;;
20084;SDS011;10202;48.474;9.138;2023-06-14T00:40:24;4.03;;;3.20;;
20084;SDS011;10202;48.474;9.138;2023-06-14T00:42:50;4.45;;;3.25;;
20084;SDS011;10202;48.474;9.138;2023-06-14T00:45:15;5.07;;;3.38;;
20084;SDS011;10202;48.474;9.138;2023-06-14T00:47:41;8.38;;;3.58;;
20084;SDS011;10202;48.474;9.138;2023-06-14T00:50:11;7.13;;;3.58;;
20084;SDS011;10202;48.474;9.138;2023-06-14T00:52:40;7.13;;;4.05;;
20084;SDS011;10202;48.474;9.138;2023-06-14T00:55:05;4.47;;;3.28;;
20084;SDS011;10202;48.474;9.138;2023-06-14T00:57:32;5.47;;;3.95;;
20084;SDS011;10202;48.474;9.138;2023-06-14T01:00:02;5.40;;;3.65;;
20084;SDS011;10202;48.474;9.138;2023-06-14T01:02:35;4.93;;;3.42;;
20084;SDS011;10202;48.474;9.138;2023-06-14T01:05:02;4.53;;;3.47;;
20084;SDS011;10202;48.474;9.138;2023-06-14T01:15:47;4.65;;;3.58;;
20084;SDS011;10202;48.474;9.138;2023-06-14T01:18:13;3.80;;;3.40;;
20084;SDS011;10202;48.474;9.138;2023-06-14T01:20:51;4.75;;;3.50;;
20084;SDS011;10202;48.474;9.138;2023-06-14T01:23:20;4.97;;;3.65;;
20084;SDS011;10202;48.474;9.138;2023-06-14T01:25:49;4.80;;;3.65;;
20084;SDS011;10202;48.474;9.138;2023-06-14T01:28:21;7.18;;;3.83;;
20084;SDS011;10202;48.474;9.138;2023-06-14T01:30:50;6.90;;;3.40;;
20084;SDS011;10202;48.474;9.138;2023-06-14T01:33:21;4.70;;;3.75;;
20084;SDS011;10202;48.474;9.138;2023-06-14T01:35:51;5.82;;;3.60;;
20084;SDS011;10202;48.474;9.138;2023-06-14T01:38:21;5.72;;;3.78;;
20084;SDS011;10202;48.474;9.138;2023-06-14T01:40:52;5.38;;;3.75;;
20084;SDS011;10202;48.474;9.138;2023-06-14T01:43:20;8.30;;;3.72;;
20084;SDS011;10202;48.474;9.138;2023-06-14T01:45:46;5.80;;;3.85;;
20084;SDS011;10202;48.474;9.138;2023-06-14T01:48:14;7.13;;;3.60;;
20084;SDS011;10202;48.474;9.138;2023-06-14T01:50:39;6.80;;;4.05;;
20084;SDS011;10202;48.474;9.138;2023-06-14T01:53:08;5.90;;;3.67;;
20084;SDS011;10202;48.474;9.138;2023-06-14T01:55:37;5.85;;;4.15;;
20084;SDS011;10202;48.474;9.138;2023-06-14T01:58:05;5.97;;;4.20;;
20084;SDS011;10202;48.474;9.138;2023-06-14T02:00:36;5.13;;;3.58;;
20084;SDS011;10202;48.474;9.138;2023-06-14T02:03:01;5.22;;;3.75;;
20084;SDS011;10202;48.474;9.138;2023-06-14T02:05:30;6.30;;;4.22;;
20084;SDS011;10202;48.474;9.138;2023-06-14T02:07:56;8.85;;;3.67;;
20084;SDS011;10202;48.474;9.138;2023-06-14T02:10:21;6.60;;;3.47;;
20084;SDS011;10202;48.474;9.138;2023-06-14T02:12:50;8.82;;;3.75;;
20084;SDS011;10202;48.474;9.138;2023-06-14T02:15:17;5.10;;;3.65;;
20084;SDS011;10202;48.474;9.138;2023-06-14T02:17:51;6.45;;;3.75;;
20084;SDS011;10202;48.474;9.138;2023-06-14T02:20:22;6.25;;;4.07;;
20084;SDS011;10202;48.474;9.138;2023-06-14T02:22:47;5.05;;;3.45;;
20084;SDS011;10202;48.474;9.138;2023-06-14T02:25:13;4.70;;;3.60;;
20084;SDS011;10202;48.474;9.138;2023-06-14T02:27:42;8.65;;;4.20;;
20084;SDS011;10202;48.474;9.138;2023-06-14T02:30:12;4.25;;;3.45;;
20084;SDS011;10202;48.474;9.138;2023-06-14T02:32:45;6.82;;;4.03;;
20084;SDS011;10202;48.474;9.138;2023-06-14T02:35:14;3.92;;;3.33;;
20084;SDS011;10202;48.474;9.138;2023-06-14T02:37:42;8.35;;;4.15;;
20084;SDS011;10202;48.474;9.138;2023-06-14T02:40:08;6.55;;;3.78;;
20084;SDS011;10202;48.474;9.138;2023-06-14T02:42:36;6.78;;;3.80;;
20084;SDS011;10202;48.474;9.138;2023-06-14T02:45:06;7.35;;;3.95;;
20084;SDS011;10202;48.474;9.138;2023-06-14T02:47:33;7.60;;;4.00;;
20084;SDS011;10202;48.474;9.138;2023-06-14T02:50:01;4.45;;;3.85;;
20084;SDS011;10202;48.474;9.138;2023-06-14T02:52:30;5.50;;;3.55;;
20084;SDS011;10202;48.474;9.138;2023-06-14T02:54:58;3.97;;;3.58;;
20084;SDS011;10202;48.474;9.138;2023-06-14T02:57:27;5.40;;;3.88;;
20084;SDS011;10202;48.474;9.138;2023-06-14T02:59:55;7.00;;;3.70;;
20084;SDS011;10202;48.474;9.138;2023-06-14T03:02:23;5.75;;;4.20;;
20084;SDS011;10202;48.474;9.138;2023-06-14T03:04:49;4.57;;;3.78;;
20084;SDS011;10202;48.474;9.138;2023-06-14T03:07:18;4.93;;;3.60;;
20084;SDS011;10202;48.474;9.138;2023-06-14T03:09:50;5.32;;;3.70;;
20084;SDS011;10202;48.474;9.138;2023-06-14T03:12:17;8.52;;;3.63;;
20084;SDS011;10202;48.474;9.138;2023-06-14T03:14:51;6.32;;;3.75;;
20084;SDS011;10202;48.474;9.138;2023-06-14T03:17:20;4.53;;;3.50;;
20084;SDS011;10202;48.474;9.138;2023-06-14T03:19:45;5.63;;;4.13;;
20084;SDS011;10202;48.474;9.138;2023-06-14T03:22:15;6.07;;;3.90;;
20084;SDS011;10202;48.474;9.138;2023-06-14T03:24:43;5.03;;;4.00;;
20084;SDS011;10202;48.474;9.138;2023-06-14T03:27:13;8.80;;;3.95;;
20084;SDS011;10202;48.474;9.138;2023-06-14T03:29:45;5.85;;;4.22;;
20084;SDS011;10202;48.474;9.138;2023-06-14T03:32:18;5.07;;;3.95;;
20084;SDS011;10202;48.474;9.138;2023-06-14T03:34:44;7.70;;;3.80;;
20084;SDS011;10202;48.474;9.138;2023-06-14T03:37:17;6.55;;;3.90;;
20084;SDS011;10202;48.474;9.138;2023-06-14T03:39:44;5.45;;;4.00;;
20084;SDS011;10202;48.474;9.138;2023-06-14T03:42:15;5.78;;;4.00;;
20084;SDS011;10202;48.474;9.138;2023-06-14T03:44:44;7.13;;;4.53;;
20084;SDS011;10202;48.474;9.138;2023-06-14T03:47:16;5.68;;;3.70;;
20084;SDS011;10202;48.474;9.138;2023-06-14T03:49:42;6.47;;;4.15;;
20084;SDS011;10202;48.474;9.138;2023-06-14T03:52:09;6.90;;;4.07;;
20084;SDS011;10202;48.474;9.138;2023-06-14T03:54:37;6.15;;;3.97;;
20084;SDS011;10202;48.474;9.138;2023-06-14T03:57:06;5.72;;;3.80;;
20084;SDS011;10202;48.474;9.138;2023-06-14T03:59:35;7.40;;;4.15;;
20084;SDS011;10202;48.474;9.138;2023-06-14T04:02:04;6.55;;;4.15;;
20084;SDS011;10202;48.474;9.138;2023-06-14T04:04:35;9.20;;;3.95;;
20084;SDS011;10202;48.474;9.138;2023-06-14T04:07:06;4.72;;;3.92;;
20084;SDS011;10202;48.474;9.138;2023-06-14T04:09:33;5.38;;;4.07;;
20084;SDS011;10202;48.474;9.138;2023-06-14T04:11:59;6.32;;;4.22;;
20084;SDS011;10202;48.474;9.138;2023-06-14T04:14:24;4.93;;;3.72;;
20084;SDS011;10202;48.474;9.138;2023-06-14T04:16:54;7.78;;;3.67;;
20084;SDS011;10202;48.474;9.138;2023-06-14T04:19:20;6.32;;;3.78;;
20084;SDS011;10202;48.474;9.138;2023-06-14T04:21:46;7.05;;;4.20;;
20084;SDS011;10202;48.474;9.138;2023-06-14T04:24:13;11.05;;;4.18;;
20084;SDS011;10202;48.474;9.138;2023-06-14T04:26:46;5.88;;;4.15;;
20084;SDS011;10202;48.474;9.138;2023-06-14T04:29:17;8.68;;;3.92;;
20084;SDS011;10202;48.474;9.138;2023-06-14T04:31:54;7.18;;;4.20;;
20084;SDS011;10202;48.474;9.138;2023-06-14T04:34:20;14.20;;;4.47;;
20084;SDS011;10202;48.474;9.138;2023-06-14T04:36:57;6.05;;;4.18;;
20084;SDS011;10202;48.474;9.138;2023-06-14T04:39:30;12.43;;;3.92;;
20084;SDS011;10202;48.474;9.138;2023-06-14T04:42:01;7.85;;;3.95;;
20084;SDS011;10202;48.474;9.138;2023-06-14T04:44:35;7.53;;;4.13;;
20084;SDS011;10202;48.474;9.138;2023-06-14T04:47:03;7.47;;;3.80;;
20084;SDS011;10202;48.474;9.138;2023-06-14T04:49:29;6.95;;;4.13;;
20084;SDS011;10202;48.474;9.138;2023-06-14T04:51:56;6.78;;;4.40;;
20084;SDS011;10202;48.474;9.138;2023-06-14T04:54:31;8.93;;;4.35;;
20084;SDS011;10202;48.474;9.138;2023-06-14T04:57:04;8.05;;;3.95;;
20084;SDS011;10202;48.474;9.138;2023-06-14T04:59:31;7.60;;;4.15;;
20084;SDS011;10202;48.474;9.138;2023-06-14T05:02:03;7.15;;;4.10;;
20084;SDS011;10202;48.474;9.138;2023-06-14T05:04:32;5.28;;;4.03;;
20084;SDS011;10202;48.474;9.138;2023-06-14T05:06:58;6.60;;;3.85;;
20084;SDS011;10202;48.474;9.138;2023-06-14T05:09:29;8.65;;;4.18;;
20084;SDS011;10202;48.474;9.138;2023-06-14T05:11:55;6.03;;;4.20;;
20084;SDS011;10202;48.474;9.138;2023-06-14T05:14:21;5.68;;;3.67;;
20084;SDS011;10202;48.474;9.138;2023-06-14T05:16:49;6.13;;;4.43;;
20084;SDS011;10202;48.474;9.138;2023-06-14T05:19:15;6.80;;;3.80;;
20084;SDS011;10202;48.474;9.138;2023-06-14T05:21:45;7.80;;;4.07;;
20084;SDS011;10202;48.474;9.138;2023-06-14T05:24:12;7.10;;;4.60;;
20084;SDS011;10202;48.474;9.138;2023-06-14T05:26:42;6.95;;;4.07;;
20084;SDS011;10202;48.474;9.138;2023-06-14T05:29:07;11.40;;;4.38;;
20084;SDS011;10202;48.474;9.138;2023-06-14T05:31:35;7.45;;;4.22;;
20084;SDS011;10202;48.474;9.138;2023-06-14T05:34:03;5.57;;;4.10;;
20084;SDS011;10202;48.474;9.138;2023-06-14T05:36:29;6.68;;;4.10;;
20084;SDS011;10202;48.474;9.138;2023-06-14T05:38:57;9.82;;;4.00;;
20084;SDS011;10202;48.474;9.138;2023-06-14T05:41:28;5.82;;;4.00;;
20084;SDS011;10202;48.474;9.138;2023-06-14T05:43:54;7.03;;;4.15;;
20084;SDS011;10202;48.474;9.138;2023-06-14T05:46:23;6.85;;;4.28;;
20084;SDS011;10202;48.474;9.138;2023-06-14T05:48:54;7.45;;;4.20;;
20084;SDS011;10202;48.474;9.138;2023-06-14T05:51:23;7.00;;;4.30;;
20084;SDS011;10202;48.474;9.138;2023-06-14T05:53:50;24.08;;;5.25;;
20084;SDS011;10202;48.474;9.138;2023-06-14T05:56:22;7.78;;;4.40;;
20084;SDS011;10202;48.474;9.138;2023-06-14T05:58:50;15.52;;;4.88;;
20084;SDS011;10202;48.474;9.138;2023-06-14T06:01:15;5.88;;;4.00;;
20084;SDS011;10202;48.474;9.138;2023-06-14T06:03:46;5.93;;;4.45;;
20084;SDS011;10202;48.474;9.138;2023-06-14T06:06:14;6.85;;;4.10;;
20084;SDS011;10202;48.474;9.138;2023-06-14T06:08:42;13.45;;;4.55;;
20084;SDS011;10202;48.474;9.138;2023-06-14T06:11:10;6.95;;;4.32;;
20084;SDS011;10202;48.474;9.138;2023-06-14T06:13:36;12.43;;;4.65;;
20084;SDS011;10202;48.474;9.138;2023-06-14T06:16:02;5.78;;;4.03;;
20084;SDS011;10202;48.474;9.138;2023-06-14T06:18:29;5.70;;;4.43;;
20084;SDS011;10202;48.474;9.138;2023-06-14T06:20:56;5.55;;;4.25;;
20084;SDS011;10202;48.474;9.138;2023-06-14T06:23:24;6.40;;;4.20;;
20084;SDS011;10202;48.474;9.138;2023-06-14T06:25:54;7.65;;;4.38;;
20084;SDS011;10202;48.474;9.138;2023-06-14T06:28:22;6.25;;;4.15;;
20084;SDS011;10202;48.474;9.138;2023-06-14T06:30:48;6.38;;;4.38;;
20084;SDS011;10202;48.474;9.138;2023-06-14T06:33:16;9.48;;;4.40;;
20084;SDS011;10202;48.474;9.138;2023-06-14T06:35:44;12.18;;;4.40;;
20084;SDS011;10202;48.474;9.138;2023-06-14T06:38:10;10.88;;;4.35;;
20084;SDS011;10202;48.474;9.138;2023-06-14T06:40:36;6.72;;;4.20;;
20084;SDS011;10202;48.474;9.138;2023-06-14T06:43:06;6.60;;;4.35;;
20084;SDS011;10202;48.474;9.138;2023-06-14T06:45:40;5.45;;;4.00;;
20084;SDS011;10202;48.474;9.138;2023-06-14T06:48:08;11.68;;;4.35;;
20084;SDS011;10202;48.474;9.138;2023-06-14T06:50:35;7.50;;;4.30;;
20084;SDS011;10202;48.474;9.138;2023-06-14T06:53:01;5.85;;;4.10;;
20084;SDS011;10202;48.474;9.138;2023-06-14T06:55:30;4.78;;;4.20;;
20084;SDS011;10202;48.474;9.138;2023-06-14T06:57:55;7.35;;;4.78;;
20084;SDS011;10202;48.474;9.138;2023-06-14T07:00:25;5.95;;;4.30;;
20084;SDS011;10202;48.474;9.138;2023-06-14T07:02:55;6.40;;;4.60;;
20084;SDS011;10202;48.474;9.138;2023-06-14T07:05:26;7.63;;;4.38;;
20084;SDS011;10202;48.474;9.138;2023-06-14T07:07:54;6.38;;;4.53;;
20084;SDS011;10202;48.474;9.138;2023-06-14T07:10:25;8.02;;;4.82;;
20084;SDS011;10202;48.474;9.138;2023-06-14T07:12:51;7.63;;;4.97;;
20084;SDS011;10202;48.474;9.138;2023-06-14T07:15:18;5.55;;;4.57;;
20084;SDS011;10202;48.474;9.138;2023-06-14T07:17:49;8.25;;;4.95;;
20084;SDS011;10202;48.474;9.138;2023-06-14T07:20:16;11.90;;;4.57;;
20084;SDS011;10202;48.474;9.138;2023-06-14T07:22:46;7.03;;;5.00;;
20084;SDS011;10202;48.474;9.138;2023-06-14T07:25:19;10.23;;;5.03;;
20084;SDS011;10202;48.474;9.138;2023-06-14T07:27:45;9.32;;;4.72;;
20084;SDS011;10202;48.474;9.138;2023-06-14T07:30:13;11.30;;;5.28;;
20084;SDS011;10202;48.474;9.138;2023-06-14T07:32:39;9.68;;;4.78;;
20084;SDS011;10202;48.474;9.138;2023-06-14T07:35:09;10.20;;;4.65;;
20084;SDS011;10202;48.474;9.138;2023-06-14T07:37:35;10.60;;;5.20;;
20084;SDS011;10202;48.474;9.138;2023-06-14T07:40:01;7.00;;;4.55;;
20084;SDS011;10202;48.474;9.138;2023-06-14T07:42:36;7.68;;;5.25;;
20084;SDS011;10202;48.474;9.138;2023-06-14T07:45:04;6.05;;;4.80;;
20084;SDS011;10202;48.474;9.138;2023-06-14T07:47:33;5.80;;;4.97;;
20084;SDS011;10202;48.474;9.138;2023-06-14T07:50:03;6.80;;;5.20;;
20084;SDS011;10202;48.474;9.138;2023-06-14T07:52:34;6.30;;;4.88;;
20084;SDS011;10202;48.474;9.138;2023-06-14T07:54:59;7.78;;;4.85;;
20084;SDS011;10202;48.474;9.138;2023-06-14T07:57:25;8.52;;;4.68;;
20084;SDS011;10202;48.474;9.138;2023-06-14T07:59:51;7.43;;;4.75;;
20084;SDS011;10202;48.474;9.138;2023-06-14T08:02:21;6.75;;;4.90;;
20084;SDS011;10202;48.474;9.138;2023-06-14T08:04:47;6.53;;;5.03;;
20084;SDS011;10202;48.474;9.138;2023-06-14T08:07:13;8.35;;;5.00;;
20084;SDS011;10202;48.474;9.138;2023-06-14T08:09:39;6.97;;;4.97;;
20084;SDS011;10202;48.474;9.138;2023-06-14T08:12:07;9.55;;;4.97;;
20084;SDS011;10202;48.474;9.138;2023-06-14T08:14:37;7.15;;;4.85;;
20084;SDS011;10202;48.474;9.138;2023-06-14T08:17:07;10.27;;;4.75;;
20084;SDS011;10202;48.474;9.138;2023-06-14T08:19:34;9.73;;;5.25;;
20084;SDS011;10202;48.474;9.138;2023-06-14T08:22:03;7.32;;;4.90;;
20084;SDS011;10202;48.474;9.138;2023-06-14T08:24:29;14.13;;;5.22;;
20084;SDS011;10202;48.474;9.138;2023-06-14T08:26:59;9.77;;;5.35;;
20084;SDS011;10202;48.474;9.138;2023-06-14T08:29:26;6.93;;;4.97;;
20084;SDS011;10202;48.474;9.138;2023-06-14T08:31:54;7.03;;;4.85;;
20084;SDS011;10202;48.474;9.138;2023-06-14T08:34:20;6.03;;;5.00;;
20084;SDS011;10202;48.474;9.138;2023-06-14T08:36:51;7.57;;;4.90;;
20084;SDS011;10202;48.474;9.138;2023-06-14T08:39:18;7.85;;;4.90;;
20084;SDS011;10202;48.474;9.138;2023-06-14T08:41:47;13.68;;;4.40;;
20084;SDS011;10202;48.474;9.138;2023-06-14T08:44:23;8.45;;;4.82;;
20084;SDS011;10202;48.474;9.138;2023-06-14T08:46:49;5.70;;;3.92;;
20084;SDS011;10202;48.474;9.138;2023-06-14T08:49:18;11.45;;;4.40;;
20084;SDS011;10202;48.474;9.138;2023-06-14T08:51:47;9.05;;;4.43;;
20084;SDS011;10202;48.474;9.138;2023-06-14T08:54:18;7.53;;;3.95;;
20084;SDS011;10202;48.474;9.138;2023-06-14T08:56:45;6.15;;;4.03;;
20084;SDS011;10202;48.474;9.138;2023-06-14T08:59:15;5.43;;;4.07;;
20084;SDS011;10202;48.474;9.138;2023-06-14T09:01:46;6.45;;;3.92;;
20084;SDS011;10202;48.474;9.138;2023-06-14T09:04:14;9.23;;;4.30;;
20084;SDS011;10202;48.474;9.138;2023-06-14T09:06:42;8.63;;;4.07;;
20084;SDS011;10202;48.474;9.138;2023-06-14T09:09:10;6.32;;;4.60;;
20084;SDS011;10202;48.474;9.138;2023-06-14T09:11:36;9.70;;;4.13;;
20084;SDS011;10202;48.474;9.138;2023-06-14T09:14:03;4.63;;;3.67;;
20084;SDS011;10202;48.474;9.138;2023-06-14T09:16:34;11.55;;;4.47;;
20084;SDS011;10202;48.474;9.138;2023-06-14T09:18:59;8.13;;;4.40;;
20084;SDS011;10202;48.474;9.138;2023-06-14T09:21:27;6.75;;;4.38;;
20084;SDS011;10202;48.474;9.138;2023-06-14T09:23:53;8.00;;;4.30;;
20084;SDS011;10202;48.474;9.138;2023-06-14T09:26:19;7.43;;;3.92;;
20084;SDS011;10202;48.474;9.138;2023-06-14T09:28:47;9.43;;;4.30;;
20084;SDS011;10202;48.474;9.138;2023-06-14T09:31:16;11.85;;;4.35;;
20084;SDS011;10202;48.474;9.138;2023-06-14T09:33:49;6.88;;;4.63;;
20084;SDS011;10202;48.474;9.138;2023-06-14T09:36:20;7.38;;;4.13;;
20084;SDS011;10202;48.474;9.138;2023-06-14T09:38:54;7.40;;;3.75;;
20084;SDS011;10202;48.474;9.138;2023-06-14T09:41:34;8.30;;;4.60;;
20084;SDS011;10202;48.474;9.138;2023-06-14T09:44:01;6.22;;;4.43;;
20084;SDS011;10202;48.474;9.138;2023-06-14T09:46:29;8.77;;;4.25;;
20084;SDS011;10202;48.474;9.138;2023-06-14T09:48:57;17.83;;;4.35;;
20084;SDS011;10202;48.474;9.138;2023-06-14T09:51:26;9.60;;;4.70;;
20084;SDS011;10202;48.474;9.138;2023-06-14T09:53:53;7.43;;;4.57;;
20084;SDS011;10202;48.474;9.138;2023-06-14T09:56:38;5.25;;;4.38;;
20084;SDS011;10202;48.474;9.138;2023-06-14T09:59:14;7.80;;;4.05;;
20084;SDS011;10202;48.474;9.138;2023-06-14T10:01:45;7.25;;;3.78;;
20084;SDS011;10202;48.474;9.138;2023-06-14T10:04:12;6.63;;;4.00;;
20084;SDS011;10202;48.474;9.138;2023-06-14T10:06:40;5.20;;;3.97;;
20084;SDS011;10202;48.474;9.138;2023-06-14T10:09:09;6.90;;;4.25;;
20084;SDS011;10202;48.474;9.138;2023-06-14T10:11:36;7.70;;;4.25;;
20084;SDS011;10202;48.474;9.138;2023-06-14T10:14:09;5.57;;;3.78;;
20084;SDS011;10202;48.474;9.138;2023-06-14T10:19:37;8.00;;;4.75;;
20084;SDS011;10202;48.474;9.138;2023-06-14T10:22:10;5.68;;;4.15;;
20084;SDS011;10202;48.474;9.138;2023-06-14T10:24:44;7.95;;;4.32;;
20084;SDS011;10202;48.474;9.138;2023-06-14T10:27:14;7.00;;;4.25;;
20084;SDS011;10202;48.474;9.138;2023-06-14T10:32:17;7.97;;;4.45;;
20084;SDS011;10202;48.474;9.138;2023-06-14T10:34:44;6.75;;;4.82;;
20084;SDS011;10202;48.474;9.138;2023-06-14T10:37:12;8.88;;;4.82;;
20084;SDS011;10202;48.474;9.138;2023-06-14T10:39:46;5.55;;;4.38;;
20084;SDS011;10202;48.474;9.138;2023-06-14T10:42:14;6.18;;;4.32;;
20084;SDS011;10202;48.474;9.138;2023-06-14T10:47:19;7.40;;;4.22;;
20084;SDS011;10202;48.474;9.138;2023-06-14T10:49:51;5.47;;;4.20;;
20084;SDS011;10202;48.474;9.138;2023-06-14T10:52:22;12.95;;;4.90;;
20084;SDS011;10202;48.474;9.138;2023-06-14T10:57:36;4.78;;;3.85;;
20084;SDS011;10202;48.474;9.138;2023-06-14T11:00:22;9.05;;;4.13;;
20084;SDS011;10202;48.474;9.138;2023-06-14T11:11:17;10.60;;;4.60;;
20084;SDS011;10202;48.474;9.138;2023-06-14T11:13:46;9.80;;;4.25;;
20084;SDS011;10202;48.474;9.138;2023-06-14T11:16:15;5.10;;;3.90;;
20084;SDS011;10202;48.474;9.138;2023-06-14T11:18:44;5.82;;;4.03;;
20084;SDS011;10202;48.474;9.138;2023-06-14T11:21:10;6.32;;;4.03;;
20084;SDS011;10202;48.474;9.138;2023-06-14T11:23:40;6.88;;;4.90;;
20084;SDS011;10202;48.474;9.138;2023-06-14T11:26:07;8.65;;;4.55;;
20084;SDS011;10202;48.474;9.138;2023-06-14T11:28:37;7.50;;;4.57;;
20084;SDS011;10202;48.474;9.138;2023-06-14T11:31:04;10.77;;;4.30;;
20084;SDS011;10202;48.474;9.138;2023-06-14T11:33:29;4.72;;;4.20;;
20084;SDS011;10202;48.474;9.138;2023-06-14T11:35:58;9.75;;;4.00;;
20084;SDS011;10202;48.474;9.138;2023-06-14T11:38:24;6.57;;;4.25;;
20084;SDS011;10202;48.474;9.138;2023-06-14T11:40:51;5.25;;;3.92;;
20084;SDS011;10202;48.474;9.138;2023-06-14T11:43:25;5.50;;;4.15;;
20084;SDS011;10202;48.474;9.138;2023-06-14T11:45:54;5.15;;;3.95;;
20084;SDS011;10202;48.474;9.138;2023-06-14T11:48:35;7.40;;;3.80;;
20084;SDS011;10202;48.474;9.138;2023-06-14T11:51:05;7.85;;;3.90;;
20084;SDS011;10202;48.474;9.138;2023-06-14T11:53:41;4.50;;;3.97;;
20084;SDS011;10202;48.474;9.138;2023-06-14T11:56:08;6.32;;;4.22;;
20084;SDS011;10202;48.474;9.138;2023-06-14T11:58:38;7.03;;;4.95;;
20084;SDS011;10202;48.474;9.138;2023-06-14T12:01:05;8.40;;;5.20;;
20084;SDS011;10202;48.474;9.138;2023-06-14T12:03:36;4.72;;;4.13;;
20084;SDS011;10202;48.474;9.138;2023-06-14T12:06:05;6.20;;;4.25;;
20084;SDS011;10202;48.474;9.138;2023-06-14T12:08:37;8.05;;;4.55;;
20084;SDS011;10202;48.474;9.138;2023-06-14T12:11:06;7.80;;;4.68;;
20084;SDS011;10202;48.474;9.138;2023-06-14T12:13:39;8.27;;;4.40;;
20084;SDS011;10202;48.474;9.138;2023-06-14T12:16:09;4.78;;;4.25;;
20084;SDS011;10202;48.474;9.138;2023-06-14T12:18:36;5.53;;;4.38;;
20084;SDS011;10202;48.474;9.138;2023-06-14T12:21:09;7.95;;;4.43;;
20084;SDS011;10202;48.474;9.138;2023-06-14T12:26:16;5.82;;;4.57;;
20084;SDS011;10202;48.474;9.138;2023-06-14T12:28:44;5.60;;;4.60;;
20084;SDS011;10202;48.474;9.138;2023-06-14T12:31:11;6.07;;;4.50;;
20084;SDS011;10202;48.474;9.138;2023-06-14T12:33:39;6.38;;;4.28;;
20084;SDS011;10202;48.474;9.138;2023-06-14T12:36:15;4.85;;;4.35;;
20084;SDS011;10202;48.474;9.138;2023-06-14T12:38:44;8.13;;;4.32;;
20084;SDS011;10202;48.474;9.138;2023-06-14T12:41:16;6.30;;;4.68;;
20084;SDS011;10202;48.474;9.138;2023-06-14T12:43:41;9.32;;;4.70;;
20084;SDS011;10202;48.474;9.138;2023-06-14T12:46:11;10.75;;;4.72;;
20084;SDS011;10202;48.474;9.138;2023-06-14T12:48:37;6.38;;;4.30;;
20084;SDS011;10202;48.474;9.138;2023-06-14T12:51:03;7.95;;;4.82;;
20084;SDS011;10202;48.474;9.138;2023-06-14T12:53:33;8.63;;;4.75;;
20084;SDS011;10202;48.474;9.138;2023-06-14T12:55:58;8.25;;;5.07;;
20084;SDS011;10202;48.474;9.138;2023-06-14T12:58:27;8.20;;;4.60;;
20084;SDS011;10202;48.474;9.138;2023-06-14T13:00:52;7.80;;;4.63;;
20084;SDS011;10202;48.474;9.138;2023-06-14T13:03:20;5.55;;;4.97;;
20084;SDS011;10202;48.474;9.138;2023-06-14T13:05:46;5.75;;;4.72;;
20084;SDS011;10202;48.474;9.138;2023-06-14T13:08:11;8.70;;;5.13;;
20084;SDS011;10202;48.474;9.138;2023-06-14T13:10:39;6.45;;;4.47;;
20084;SDS011;10202;48.474;9.138;2023-06-14T13:13:07;5.22;;;4.30;;
20084;SDS011;10202;48.474;9.138;2023-06-14T13:15:39;8.63;;;4.82;;
20084;SDS011;10202;48.474;9.138;2023-06-14T13:18:05;7.65;;;4.80;;
20084;SDS011;10202;48.474;9.138;2023-06-14T13:20:33;11.32;;;4.85;;
20084;SDS011;10202;48.474;9.138;2023-06-14T13:23:03;5.88;;;4.97;;
20084;SDS011;10202;48.474;9.138;2023-06-14T13:25:33;18.25;;;5.60;;
20084;SDS011;10202;48.474;9.138;2023-06-14T13:28:06;5.50;;;4.40;;
20084;SDS011;10202;48.474;9.138;2023-06-14T13:30:34;6.32;;;4.75;;
20084;SDS011;10202;48.474;9.138;2023-06-14T13:33:00;6.53;;;4.93;;
20084;SDS011;10202;48.474;9.138;2023-06-14T13:35:25;5.85;;;4.50;;
20084;SDS011;10202;48.474;9.138;2023-06-14T13:37:51;7.40;;;4.90;;
20084;SDS011;10202;48.474;9.138;2023-06-14T13:40:17;8.70;;;5.38;;
20084;SDS011;10202;48.474;9.138;2023-06-14T13:42:42;8.20;;;4.68;;
20084;SDS011;10202;48.474;9.138;2023-06-14T13:45:11;7.97;;;5.00;;
20084;SDS011;10202;48.474;9.138;2023-06-14T13:47:40;5.65;;;4.85;;
20084;SDS011;10202;48.474;9.138;2023-06-14T13:50:08;8.98;;;4.57;;
20084;SDS011;10202;48.474;9.138;2023-06-14T13:52:34;5.20;;;4.43;;
20084;SDS011;10202;48.474;9.138;2023-06-14T13:55:02;7.20;;;5.00;;
20084;SDS011;10202;48.474;9.138;2023-06-14T13:57:32;8.10;;;5.22;;
20084;SDS011;10202;48.474;9.138;2023-06-14T13:59:58;5.80;;;4.90;;
20084;SDS011;10202;48.474;9.138;2023-06-14T14:02:29;6.72;;;4.95;;
20084;SDS011;10202;48.474;9.138;2023-06-14T14:04:55;9.55;;;4.72;;
20084;SDS011;10202;48.474;9.138;2023-06-14T14:07:26;5.95;;;4.60;;
20084;SDS011;10202;48.474;9.138;2023-06-14T14:09:55;9.43;;;4.60;;
20084;SDS011;10202;48.474;9.138;2023-06-14T14:12:22;6.65;;;4.57;;
20084;SDS011;10202;48.474;9.138;2023-06-14T14:14:50;5.22;;;4.43;;
20084;SDS011;10202;48.474;9.138;2023-06-14T14:17:16;6.05;;;4.85;;
20084;SDS011;10202;48.474;9.138;2023-06-14T14:19:42;6.35;;;5.00;;
20084;SDS011;10202;48.474;9.138;2023-06-14T14:22:10;11.25;;;4.72;;
20084;SDS011;10202;48.474;9.138;2023-06-14T14:24:35;8.65;;;4.80;;
20084;SDS011;10202;48.474;9.138;2023-06-14T14:27:01;12.55;;;4.53;;
20084;SDS011;10202;48.474;9.138;2023-06-14T14:29:27;10.48;;;5.25;;
20084;SDS011;10202;48.474;9.138;2023-06-14T14:31:54;9.52;;;4.65;;
20084;SDS011;10202;48.474;9.138;2023-06-14T14:34:26;7.25;;;5.00;;
20084;SDS011;10202;48.474;9.138;2023-06-14T14:36:52;5.90;;;4.35;;
20084;SDS011;10202;48.474;9.138;2023-06-14T14:39:20;6.70;;;4.65;;
20084;SDS011;10202;48.474;9.138;2023-06-14T14:41:49;13.05;;;4.68;;
20084;SDS011;10202;48.474;9.138;2023-06-14T14:44:20;7.25;;;4.80;;
20084;SDS011;10202;48.474;9.138;2023-06-14T14:46:46;6.20;;;5.00;;
20084;SDS011;10202;48.474;9.138;2023-06-14T14:49:13;8.65;;;5.10;;
20084;SDS011;10202;48.474;9.138;2023-06-14T14:51:44;9.27;;;4.88;;
20084;SDS011;10202;48.474;9.138;2023-06-14T14:54:10;13.10;;;4.72;;
20084;SDS011;10202;48.474;9.138;2023-06-14T14:56:38;6.85;;;4.75;;
20084;SDS011;10202;48.474;9.138;2023-06-14T14:59:06;5.50;;;4.88;;
20084;SDS011;10202;48.474;9.138;2023-06-14T15:01:37;5.93;;;4.82;;
20084;SDS011;10202;48.474;9.138;2023-06-14T15:04:03;8.07;;;4.68;;
20084;SDS011;10202;48.474;9.138;2023-06-14T15:06:32;7.97;;;4.80;;
20084;SDS011;10202;48.474;9.138;2023-06-14T15:09:03;6.40;;;4.43;;
20084;SDS011;10202;48.474;9.138;2023-06-14T15:11:31;6.57;;;4.78;;
20084;SDS011;10202;48.474;9.138;2023-06-14T15:13:59;9.38;;;5.03;;
20084;SDS011;10202;48.474;9.138;2023-06-14T15:16:29;6.72;;;4.75;;
20084;SDS011;10202;48.474;9.138;2023-06-14T15:18:55;9.93;;;4.97;;
20084;SDS011;10202;48.474;9.138;2023-06-14T15:21:22;7.38;;;4.20;;
20084;SDS011;10202;48.474;9.138;2023-06-14T15:23:48;7.30;;;4.85;;